createdAt,value
2018-07-24T00:01:06.121Z,32.93
2018-07-24T00:03:34.373Z,38.90
2018-07-24T00:06:03.071Z,32.63
2018-07-24T00:08:31.784Z,35.23
2018-07-24T00:10:59.986Z,34.90
2018-07-24T00:13:28.313Z,34.40
2018-07-24T00:15:56.630Z,35.70
2018-07-24T00:18:24.772Z,34.10
2018-07-24T00:20:53.130Z,37.47
2018-07-24T00:23:21.693Z,37.70
2018-07-24T00:25:49.857Z,39.10
2018-07-24T00:28:18.385Z,46.43
2018-07-24T00:30:46.988Z,41.20
2018-07-24T00:33:15.702Z,50.73
2018-07-24T00:35:44.293Z,43.77
2018-07-24T00:38:18.759Z,40.63
2018-07-24T00:40:47.326Z,44.67
2018-07-24T00:43:15.598Z,30.07
2018-07-24T00:45:44.322Z,30.70
2018-07-24T00:48:13.032Z,35.13
2018-07-24T00:50:41.236Z,30.40
2018-07-24T00:53:09.861Z,27.80
2018-07-24T00:55:38.861Z,25.00
2018-07-24T00:58:07.533Z,39.90
2018-07-24T01:00:35.899Z,33.47
2018-07-24T01:03:04.102Z,26.70
2018-07-24T01:05:32.568Z,31.17
2018-07-24T01:08:02.355Z,34.40
2018-07-24T01:10:30.966Z,32.37
2018-07-24T01:12:59.205Z,35.10
2018-07-24T01:15:27.752Z,24.53
2018-07-24T01:17:57.017Z,26.83
2018-07-24T01:20:25.584Z,41.10
2018-07-24T01:22:53.896Z,32.43
2018-07-24T01:25:22.925Z,40.63
2018-07-24T01:27:51.758Z,40.97
2018-07-24T01:30:20.508Z,40.30
2018-07-24T01:32:49.211Z,36.57
2018-07-24T01:35:17.835Z,34.03
2018-07-24T01:37:47.274Z,40.27
2018-07-24T01:40:15.948Z,42.70
2018-07-24T01:42:45.064Z,36.10
2018-07-24T01:45:20.533Z,35.13
2018-07-24T01:47:48.923Z,40.13
2018-07-24T01:50:18.376Z,36.33
2018-07-24T01:52:46.653Z,39.03
2018-07-24T01:55:15.311Z,33.23
2018-07-24T01:57:44.873Z,44.07
2018-07-24T02:00:15.800Z,38.00
2018-07-24T02:02:44.308Z,54.53
2018-07-24T02:05:12.962Z,36.40
2018-07-24T02:07:41.898Z,37.90
2018-07-24T02:10:10.368Z,40.10
2018-07-24T02:12:38.784Z,35.70
2018-07-24T02:15:07.452Z,38.83
2018-07-24T02:17:36.384Z,43.60
2018-07-24T02:20:05.368Z,42.83
2018-07-24T02:22:34.916Z,36.70
2018-07-24T02:25:05.845Z,41.10
2018-07-24T02:27:34.554Z,54.53
2018-07-24T02:30:02.971Z,38.20
2018-07-24T02:32:31.855Z,47.23
2018-07-24T02:35:00.408Z,37.40
2018-07-24T02:37:29.037Z,36.70
2018-07-24T02:39:57.799Z,40.47
2018-07-24T02:42:26.027Z,47.17
2018-07-24T02:44:54.762Z,42.07
2018-07-24T02:47:23.387Z,39.03
2018-07-24T02:49:51.946Z,38.13
2018-07-24T02:52:20.432Z,47.27
2018-07-24T02:54:48.794Z,48.30
2018-07-24T02:57:17.415Z,39.23
2018-07-24T02:59:45.892Z,38.20
2018-07-24T03:02:14.548Z,39.70
2018-07-24T03:04:43.379Z,35.07
2018-07-24T03:07:11.769Z,35.77
2018-07-24T03:09:40.125Z,34.33
2018-07-24T03:12:08.799Z,38.73
2018-07-24T03:14:37.039Z,37.27
2018-07-24T03:17:05.620Z,30.00
2018-07-24T03:19:34.792Z,34.70
2018-07-24T03:22:03.704Z,39.83
2018-07-24T03:24:32.993Z,36.03
2018-07-24T03:27:01.493Z,34.43
2018-07-24T03:29:30.052Z,35.70
2018-07-24T03:31:58.786Z,35.60
2018-07-24T03:34:27.519Z,27.10
2018-07-24T03:36:56.215Z,37.27
2018-07-24T03:39:26.020Z,42.00
2018-07-24T03:41:54.399Z,44.70
2018-07-24T03:44:25.822Z,42.90
2018-07-24T03:46:56.344Z,44.57
2018-07-24T03:49:24.934Z,37.70
2018-07-24T03:51:53.987Z,42.40
2018-07-24T03:54:25.584Z,39.80
2018-07-24T03:56:55.547Z,43.33
2018-07-24T03:59:25.724Z,44.70
2018-07-24T04:01:54.053Z,42.20
2018-07-24T04:04:22.649Z,48.17
2018-07-24T04:06:51.246Z,47.70
2018-07-24T04:09:20.724Z,42.63
2018-07-24T04:11:48.978Z,45.37
2018-07-24T04:14:17.435Z,61.03
2018-07-24T04:16:45.658Z,58.50
2018-07-24T04:19:14.518Z,46.67
2018-07-24T04:21:43.056Z,49.80
2018-07-24T04:24:11.626Z,52.03
2018-07-24T04:26:39.765Z,53.37
2018-07-24T04:29:08.090Z,58.27
2018-07-24T04:31:36.783Z,54.27
2018-07-24T04:34:05.407Z,58.63
2018-07-24T04:36:33.885Z,45.73
2018-07-24T04:39:02.384Z,55.57
2018-07-24T04:41:30.871Z,60.67
2018-07-24T04:43:59.311Z,67.47
2018-07-24T04:46:27.833Z,65.90
2018-07-24T04:48:56.302Z,74.00
2018-07-24T04:51:24.998Z,74.40
2018-07-24T04:53:53.555Z,68.00
2018-07-24T04:56:22.093Z,77.07
2018-07-24T04:58:52.328Z,67.47
2018-07-24T05:01:22.828Z,66.97
2018-07-24T05:03:51.385Z,65.70
2018-07-24T05:06:19.918Z,67.30
2018-07-24T05:08:48.435Z,68.07
2018-07-24T05:11:17.914Z,78.33
2018-07-24T05:13:50.564Z,82.53
2018-07-24T05:16:21.290Z,92.63
2018-07-24T05:18:50.018Z,94.37
2018-07-24T05:21:18.724Z,85.20
2018-07-24T05:23:47.382Z,78.23
2018-07-24T05:26:16.063Z,76.67
2018-07-24T05:28:46.058Z,76.50
2018-07-24T05:31:17.144Z,86.10
2018-07-24T05:33:46.095Z,94.93
2018-07-24T05:36:14.843Z,94.47
2018-07-24T05:38:44.641Z,84.50
2018-07-24T05:41:13.544Z,81.07
2018-07-24T05:43:42.514Z,82.87
2018-07-24T05:46:13.937Z,83.03
2018-07-24T05:48:44.589Z,77.60
2018-07-24T05:51:14.116Z,69.43
2018-07-24T05:53:43.076Z,76.00
2018-07-24T05:56:12.419Z,67.20
2018-07-24T05:58:41.109Z,64.00
2018-07-24T06:01:09.933Z,60.93
2018-07-24T06:03:39.333Z,59.60
2018-07-24T06:06:07.927Z,58.33
2018-07-24T06:08:36.526Z,61.33
2018-07-24T06:11:05.142Z,53.50
2018-07-24T06:13:34.982Z,59.60
2018-07-24T06:16:04.059Z,48.03
2018-07-24T06:18:33.389Z,72.07
2018-07-24T06:21:01.947Z,44.57
2018-07-24T06:23:31.675Z,43.50
2018-07-24T06:26:00.255Z,47.93
2018-07-24T06:28:32.224Z,39.80
2018-07-24T06:31:01.537Z,42.17
2018-07-24T06:33:30.048Z,33.87
2018-07-24T06:35:58.588Z,41.10
2018-07-24T06:38:27.376Z,33.50
2018-07-24T06:40:55.963Z,35.60
2018-07-24T06:43:24.675Z,29.70
2018-07-24T06:45:53.641Z,36.40
2018-07-24T06:48:23.276Z,30.63
2018-07-24T06:50:53.045Z,29.77
2018-07-24T06:53:22.469Z,31.37
2018-07-24T06:55:51.960Z,30.70
2018-07-24T06:58:20.880Z,31.63
2018-07-24T07:00:50.308Z,31.17
2018-07-24T07:03:21.985Z,29.53
2018-07-24T07:05:50.960Z,28.10
2018-07-24T07:08:22.021Z,26.87
2018-07-24T07:10:50.638Z,23.73
2018-07-24T07:13:19.470Z,23.70
2018-07-24T07:15:48.332Z,23.33
2018-07-24T07:18:17.331Z,24.67
2018-07-24T07:20:45.877Z,21.23
2018-07-24T07:23:14.699Z,26.50
2018-07-24T07:25:43.268Z,23.03
2018-07-24T07:28:11.918Z,22.90
2018-07-24T07:30:40.764Z,20.20
2018-07-24T07:33:09.468Z,20.30
2018-07-24T07:35:38.125Z,23.13
2018-07-24T07:38:06.988Z,20.83
2018-07-24T07:40:35.472Z,18.33
2018-07-24T07:43:03.994Z,20.10
2018-07-24T07:45:32.748Z,19.43
2018-07-24T07:48:01.406Z,24.50
2018-07-24T07:50:30.090Z,19.93
2018-07-24T07:52:58.802Z,18.17
2018-07-24T07:55:27.601Z,22.87
2018-07-24T07:57:56.678Z,20.67
2018-07-24T08:00:25.330Z,20.53
2018-07-24T08:02:54.418Z,19.73
2018-07-24T08:05:26.434Z,16.60
2018-07-24T08:07:55.223Z,17.90
2018-07-24T08:10:24.039Z,21.93
2018-07-24T08:12:52.707Z,16.53
2018-07-24T08:15:21.431Z,19.47
2018-07-24T08:17:50.279Z,21.73
2018-07-24T08:20:19.567Z,27.57
2018-07-24T08:22:48.531Z,20.83
2018-07-24T08:25:17.205Z,20.33
2018-07-24T08:27:46.091Z,19.73
2018-07-24T08:30:15.097Z,20.20
2018-07-24T08:32:43.746Z,24.30
2018-07-24T08:35:12.980Z,19.13
2018-07-24T08:37:42.357Z,22.90
2018-07-24T08:40:11.517Z,23.63
2018-07-24T08:42:40.147Z,19.10
2018-07-24T08:45:09.097Z,17.73
2018-07-24T08:47:41.058Z,20.97
2018-07-24T08:50:11.062Z,18.23
2018-07-24T08:52:41.347Z,17.00
2018-07-24T08:55:10.353Z,17.67
2018-07-24T08:57:39.255Z,19.17
2018-07-24T09:00:07.669Z,18.93
2018-07-24T09:02:38.799Z,16.60
2018-07-24T09:05:07.360Z,17.13
2018-07-24T09:07:36.854Z,22.57
2018-07-24T09:10:05.848Z,16.30
2018-07-24T09:12:34.678Z,17.17
2018-07-24T09:15:04.038Z,20.83
2018-07-24T09:17:32.709Z,17.40
2018-07-24T09:20:01.353Z,16.90
2018-07-24T09:22:32.048Z,17.70
2018-07-24T09:25:01.204Z,17.53
2018-07-24T09:27:29.748Z,16.03
2018-07-24T09:29:58.352Z,17.90
2018-07-24T09:32:26.928Z,16.17
2018-07-24T09:34:55.417Z,14.13
2018-07-24T09:37:23.953Z,14.03
2018-07-24T09:39:52.534Z,14.70
2018-07-24T09:42:21.054Z,15.93
2018-07-24T09:44:49.616Z,24.23
2018-07-24T09:47:18.760Z,14.00
2018-07-24T09:49:47.271Z,15.30
2018-07-24T09:52:15.705Z,14.43
2018-07-24T09:54:44.217Z,13.43
2018-07-24T09:57:12.886Z,12.80
2018-07-24T09:59:41.454Z,14.40
2018-07-24T10:02:09.993Z,14.53
2018-07-24T10:04:38.476Z,13.47
2018-07-24T10:07:06.925Z,13.30
2018-07-24T10:09:35.373Z,13.50
2018-07-24T10:12:03.932Z,12.63
2018-07-24T10:14:32.501Z,14.13
2018-07-24T10:17:00.989Z,14.17
2018-07-24T10:19:29.466Z,14.07
2018-07-24T10:21:57.967Z,13.87
2018-07-24T10:24:26.510Z,13.93
2018-07-24T10:26:55.051Z,12.97
2018-07-24T10:29:23.559Z,13.77
2018-07-24T10:31:52.076Z,11.73
2018-07-24T10:34:20.621Z,11.30
2018-07-24T10:36:49.670Z,9.53
2018-07-24T10:39:18.237Z,11.03
2018-07-24T10:41:46.780Z,10.30
2018-07-24T10:44:15.357Z,12.83
2018-07-24T10:46:43.874Z,10.83
2018-07-24T10:49:12.892Z,15.63
2018-07-24T10:51:41.345Z,10.30
2018-07-24T10:54:10.452Z,9.43
2018-07-24T10:56:38.897Z,11.07
2018-07-24T10:59:07.431Z,13.23
2018-07-24T11:01:35.950Z,20.80
2018-07-24T11:04:04.526Z,10.90
2018-07-24T11:06:33.067Z,9.90
2018-07-24T11:09:01.588Z,10.43
2018-07-24T11:11:33.986Z,10.87
2018-07-24T11:14:02.456Z,11.40
2018-07-24T11:16:30.990Z,10.70
2018-07-24T11:18:59.584Z,11.87
2018-07-24T11:21:28.217Z,11.23
2018-07-24T11:23:56.862Z,9.13
2018-07-24T11:26:25.658Z,9.83
2018-07-24T11:28:54.471Z,9.50
2018-07-24T11:31:23.440Z,9.80
2018-07-24T11:33:51.936Z,11.77
2018-07-24T11:36:21.214Z,8.87
2018-07-24T11:38:49.858Z,9.90
2018-07-24T11:41:18.469Z,9.10
2018-07-24T11:43:47.104Z,9.93
2018-07-24T11:46:15.740Z,9.33
2018-07-24T11:48:44.334Z,10.93
2018-07-24T11:51:16.772Z,10.20
2018-07-24T11:53:45.946Z,11.10
2018-07-24T11:56:14.542Z,10.90
2018-07-24T11:58:43.154Z,9.70
2018-07-24T12:01:11.781Z,9.00
2018-07-24T12:03:40.337Z,9.20
2018-07-24T12:06:08.959Z,19.10
2018-07-24T12:08:37.629Z,7.70
2018-07-24T12:11:06.357Z,8.37
2018-07-24T12:13:34.954Z,7.80
2018-07-24T12:16:03.604Z,8.17
2018-07-24T12:18:32.153Z,31.03
2018-07-24T12:21:00.771Z,12.20
2018-07-24T12:23:29.366Z,9.73
2018-07-24T12:25:58.027Z,10.90
2018-07-24T12:28:26.747Z,8.07
2018-07-24T12:30:55.484Z,6.67
2018-07-24T12:33:24.170Z,7.83
2018-07-24T12:35:52.700Z,7.87
2018-07-24T12:38:21.818Z,7.77
2018-07-24T12:40:51.222Z,26.33
2018-07-24T12:43:20.121Z,9.57
2018-07-24T12:45:48.720Z,7.23
2018-07-24T12:48:17.223Z,8.40
2018-07-24T12:50:45.872Z,8.40
2018-07-24T12:53:14.575Z,7.83
2018-07-24T12:55:43.100Z,8.93
2018-07-24T12:58:11.788Z,10.20
2018-07-24T13:00:40.366Z,7.03
2018-07-24T13:03:08.970Z,7.10
2018-07-24T13:05:37.497Z,10.37
2018-07-24T13:08:06.025Z,8.10
2018-07-24T13:10:34.601Z,15.17
2018-07-24T13:13:03.202Z,7.77
2018-07-24T13:15:31.660Z,13.57
2018-07-24T13:18:00.166Z,9.53
2018-07-24T13:20:28.705Z,8.37
2018-07-24T13:22:57.248Z,7.67
2018-07-24T13:25:25.819Z,6.83
2018-07-24T13:27:54.380Z,8.07
2018-07-24T13:30:22.876Z,7.40
2018-07-24T13:32:53.912Z,7.50
2018-07-24T13:35:22.689Z,8.07
2018-07-24T13:37:52.884Z,6.90
2018-07-24T13:40:21.611Z,9.80
2018-07-24T13:42:50.201Z,7.30
2018-07-24T13:45:18.784Z,8.37
2018-07-24T13:47:47.313Z,9.00
2018-07-24T13:50:18.899Z,7.10
2018-07-24T13:52:47.618Z,7.57
2018-07-24T13:55:16.192Z,8.20
2018-07-24T13:57:44.744Z,7.90
2018-07-24T14:00:13.547Z,7.63
2018-07-24T14:02:42.240Z,6.97
2018-07-24T14:05:10.895Z,6.57
2018-07-24T14:07:39.372Z,8.43
2018-07-24T14:10:07.883Z,7.73
2018-07-24T14:12:36.426Z,14.30
2018-07-24T14:15:05.099Z,7.50
2018-07-24T14:17:33.807Z,7.97
2018-07-24T14:20:02.834Z,7.10
2018-07-24T14:22:31.352Z,9.73
2018-07-24T14:24:59.961Z,8.00
2018-07-24T14:27:28.495Z,7.40
2018-07-24T14:29:57.076Z,9.90
2018-07-24T14:32:25.606Z,11.60
2018-07-24T14:34:54.256Z,7.40
2018-07-24T14:37:22.954Z,6.97
2018-07-24T14:39:51.460Z,6.50
2018-07-24T14:42:20.121Z,7.20
2018-07-24T14:44:48.617Z,7.97
2018-07-24T14:47:17.170Z,7.10
2018-07-24T14:49:45.879Z,6.93
2018-07-24T14:52:14.463Z,7.63
2018-07-24T14:54:43.007Z,8.00
2018-07-24T14:57:11.803Z,8.00
2018-07-24T14:59:40.422Z,8.90
2018-07-24T15:02:08.982Z,7.60
2018-07-24T15:04:37.554Z,10.40
2018-07-24T15:07:06.246Z,9.00
2018-07-24T15:09:34.795Z,7.03
2018-07-24T15:12:03.405Z,8.00
2018-07-24T15:14:31.973Z,7.67
2018-07-24T15:17:00.528Z,8.00
2018-07-24T15:19:29.124Z,6.30
2018-07-24T15:21:57.690Z,7.13
2018-07-24T15:24:26.319Z,7.27
2018-07-24T15:26:54.995Z,8.40
2018-07-24T15:29:23.597Z,6.47
2018-07-24T15:31:52.173Z,7.90
2018-07-24T15:34:20.920Z,7.17
2018-07-24T15:36:49.686Z,7.83
2018-07-24T15:39:18.319Z,9.77
2018-07-24T15:41:47.146Z,6.73
2018-07-24T15:44:18.179Z,8.37
2018-07-24T15:46:46.915Z,8.97
2018-07-24T15:49:15.629Z,9.30
2018-07-24T15:51:44.513Z,7.10
2018-07-24T15:54:13.933Z,6.90
2018-07-24T15:56:45.062Z,6.20
2018-07-24T15:59:13.632Z,7.10
2018-07-24T16:01:42.311Z,6.83
2018-07-24T16:04:13.650Z,9.00
2018-07-24T16:06:42.257Z,7.93
2018-07-24T16:09:14.495Z,9.43
2018-07-24T16:11:45.083Z,7.10
2018-07-24T16:14:13.903Z,6.83
2018-07-24T16:16:42.694Z,6.20
2018-07-24T16:19:11.341Z,6.73
2018-07-24T16:21:40.335Z,6.60
2018-07-24T16:24:09.197Z,7.60
2018-07-24T16:26:38.049Z,6.57
2018-07-24T16:29:06.689Z,7.03
2018-07-24T16:31:35.710Z,7.63
2018-07-24T16:34:04.533Z,6.73
2018-07-24T16:36:34.598Z,6.30
2018-07-24T16:39:03.556Z,6.70
2018-07-24T16:41:32.909Z,7.43
2018-07-24T16:44:04.847Z,7.50
2018-07-24T16:46:34.122Z,7.07
2018-07-24T16:49:02.821Z,7.07
2018-07-24T16:51:32.120Z,9.37
2018-07-24T16:54:01.588Z,14.03
2018-07-24T16:56:30.395Z,10.40
2018-07-24T16:59:00.083Z,10.47
2018-07-24T17:01:30.548Z,8.03
2018-07-24T17:03:59.467Z,6.70
2018-07-24T17:06:29.728Z,6.70
2018-07-24T17:08:58.978Z,7.77
2018-07-24T17:11:29.993Z,7.93
2018-07-24T17:13:59.146Z,6.93
2018-07-24T17:16:27.889Z,7.83
2018-07-24T17:18:56.534Z,7.47
2018-07-24T17:21:25.073Z,7.13
2018-07-24T17:23:53.681Z,8.97
2018-07-24T17:26:22.351Z,11.40
2018-07-24T17:28:50.928Z,7.30
2018-07-24T17:31:19.429Z,6.80
2018-07-24T17:33:48.084Z,7.63
2018-07-24T17:36:17.156Z,7.53
2018-07-24T17:38:45.796Z,8.80
2018-07-24T17:41:14.366Z,7.47
2018-07-24T17:43:42.920Z,7.97
2018-07-24T17:46:11.403Z,7.73
2018-07-24T17:48:40.000Z,7.17
2018-07-24T17:51:08.614Z,11.07
2018-07-24T17:53:37.444Z,9.73
2018-07-24T17:56:06.053Z,8.90
2018-07-24T17:58:34.571Z,9.87
2018-07-24T18:01:03.284Z,8.33
2018-07-24T18:03:31.784Z,7.73
2018-07-24T18:06:00.395Z,11.40
2018-07-24T18:08:30.910Z,7.43
2018-07-24T18:10:59.744Z,9.50
2018-07-24T18:13:28.246Z,7.13
2018-07-24T18:15:56.842Z,8.10
2018-07-24T18:18:25.391Z,7.93
2018-07-24T18:20:53.961Z,8.50
2018-07-24T18:23:22.731Z,8.03
2018-07-24T18:25:50.933Z,7.67
2018-07-24T18:28:19.459Z,12.40
2018-07-24T18:30:47.967Z,7.70
2018-07-24T18:33:16.809Z,13.40
2018-07-24T18:35:45.302Z,11.00
2018-07-24T18:38:13.595Z,15.80
2018-07-24T18:40:42.155Z,9.80
2018-07-24T18:43:10.953Z,11.90
2018-07-24T18:45:39.211Z,11.20
2018-07-24T18:48:08.062Z,10.30
2018-07-24T18:50:36.317Z,10.07
2018-07-24T18:53:06.326Z,10.10
2018-07-24T18:55:35.600Z,8.20
2018-07-24T18:58:03.887Z,9.70
2018-07-24T19:00:32.515Z,9.33
2018-07-24T19:03:01.437Z,9.33
2018-07-24T19:05:30.172Z,9.27
2018-07-24T19:07:59.570Z,8.47
2018-07-24T19:10:29.097Z,10.67
2018-07-24T19:12:58.503Z,9.20
2018-07-24T19:15:27.832Z,10.00
2018-07-24T19:18:02.069Z,10.10
2018-07-24T19:20:32.500Z,9.80
2018-07-24T19:23:01.024Z,10.67
2018-07-24T19:25:30.958Z,12.33
2018-07-24T19:28:00.263Z,10.73
2018-07-24T19:30:28.761Z,10.53
2018-07-24T19:32:58.393Z,13.50
2018-07-24T19:35:30.851Z,16.10
2018-07-24T19:38:00.758Z,12.03
2018-07-24T19:40:30.633Z,15.37
2018-07-24T19:43:00.643Z,12.00
2018-07-24T19:45:29.535Z,13.60
2018-07-24T19:47:58.484Z,11.73
2018-07-24T19:50:27.384Z,12.33
2018-07-24T19:52:56.161Z,12.63
2018-07-24T19:55:25.299Z,12.20
2018-07-24T19:57:55.617Z,12.87
2018-07-24T20:00:24.549Z,11.23
2018-07-24T20:02:53.909Z,13.33
2018-07-24T20:05:25.825Z,13.80
2018-07-24T20:07:54.333Z,12.30
2018-07-24T20:10:23.499Z,12.17
2018-07-24T20:12:52.272Z,14.40
2018-07-24T20:15:21.585Z,13.20
2018-07-24T20:17:51.028Z,14.60
2018-07-24T20:20:21.566Z,13.50
2018-07-24T20:22:50.311Z,15.57
2018-07-24T20:25:19.026Z,13.20
2018-07-24T20:27:48.349Z,15.93
2018-07-24T20:30:18.088Z,14.63
2018-07-24T20:32:46.831Z,29.03
2018-07-24T20:35:15.586Z,13.57
2018-07-24T20:37:45.217Z,14.77
2018-07-24T20:40:14.133Z,18.90
2018-07-24T20:42:43.152Z,14.70
2018-07-24T20:45:12.013Z,16.30
2018-07-24T20:47:40.765Z,16.13
2018-07-24T20:50:09.075Z,14.77
2018-07-24T20:52:38.219Z,14.70
2018-07-24T20:55:07.241Z,16.87
2018-07-24T20:57:35.752Z,14.70
2018-07-24T21:00:04.055Z,15.70
2018-07-24T21:02:32.809Z,16.97
2018-07-24T21:05:01.136Z,17.37
2018-07-24T21:07:29.737Z,15.40
2018-07-24T21:09:58.322Z,16.37
2018-07-24T21:12:30.715Z,17.10
2018-07-24T21:14:59.333Z,16.63
2018-07-24T21:17:27.611Z,17.60
2018-07-24T21:19:56.116Z,16.53
2018-07-24T21:22:24.770Z,16.93
2018-07-24T21:24:53.791Z,15.13
2018-07-24T21:27:22.363Z,16.73
2018-07-24T21:29:50.961Z,15.23
2018-07-24T21:32:19.484Z,15.07
2018-07-24T21:34:47.701Z,17.30
2018-07-24T21:37:16.299Z,16.93
2018-07-24T21:39:45.168Z,17.90
2018-07-24T21:42:13.353Z,18.03
2018-07-24T21:44:41.624Z,16.50
2018-07-24T21:47:09.801Z,16.93
2018-07-24T21:49:38.333Z,18.23
2018-07-24T21:52:06.854Z,16.93
2018-07-24T21:54:35.382Z,16.83
2018-07-24T21:57:03.923Z,18.47
2018-07-24T21:59:32.179Z,18.57
2018-07-24T22:02:00.623Z,19.77
2018-07-24T22:04:29.170Z,19.00
2018-07-24T22:06:57.654Z,19.30
2018-07-24T22:09:26.170Z,20.70
2018-07-24T22:11:54.331Z,20.43
2018-07-24T22:14:22.822Z,19.03
2018-07-24T22:16:51.468Z,17.27
2018-07-24T22:19:19.918Z,25.63
2018-07-24T22:21:48.153Z,18.33
2018-07-24T22:24:16.570Z,17.67
2018-07-24T22:26:45.073Z,26.43
2018-07-24T22:29:13.309Z,20.63
2018-07-24T22:31:41.480Z,23.27
2018-07-24T22:34:09.905Z,20.97
2018-07-24T22:36:38.194Z,18.80
2018-07-24T22:39:09.267Z,19.67
2018-07-24T22:41:37.788Z,25.40
2018-07-24T22:44:05.954Z,22.93
2018-07-24T22:46:34.690Z,25.03
2018-07-24T22:49:02.953Z,18.17
2018-07-24T22:51:31.082Z,20.13
2018-07-24T22:53:59.589Z,17.30
2018-07-24T22:56:28.196Z,19.27
2018-07-24T22:58:56.692Z,18.80
2018-07-24T23:01:25.166Z,24.47
2018-07-24T23:03:53.646Z,18.87
2018-07-24T23:06:22.072Z,22.23
2018-07-24T23:08:50.563Z,21.80
2018-07-24T23:11:19.133Z,21.03
2018-07-24T23:13:47.578Z,18.10
2018-07-24T23:16:16.028Z,20.93
2018-07-24T23:18:44.138Z,17.80
2018-07-24T23:21:12.654Z,17.10
2018-07-24T23:23:40.762Z,22.40
2018-07-24T23:26:09.204Z,17.67
2018-07-24T23:28:37.621Z,19.73
2018-07-24T23:31:06.328Z,23.47
2018-07-24T23:33:34.746Z,22.80
2018-07-24T23:36:03.344Z,22.00
2018-07-24T23:38:31.807Z,21.03
2018-07-24T23:41:00.267Z,23.63
2018-07-24T23:43:28.735Z,21.23
2018-07-24T23:45:57.092Z,23.20
2018-07-24T23:48:25.587Z,23.30
2018-07-24T23:50:53.838Z,22.20
2018-07-24T23:53:22.444Z,21.80
2018-07-24T23:55:50.587Z,23.37
2018-07-24T23:58:19.301Z,21.17
